sensor_id;sensor_type;location;lat;lon;timestamp;P1;durP1;ratioP1;P2;durP2;ratioP2
18425;SDS011;9340;48.756;9.226;2024-03-08T00:01:35;26.17;;;22.30;;
18425;SDS011;9340;48.756;9.226;2024-03-08T00:04:02;27.97;;;22.73;;
18425;SDS011;9340;48.756;9.226;2024-03-08T00:06:29;23.53;;;20.73;;
18425;SDS011;9340;48.756;9.226;2024-03-08T00:08:57;23.23;;;19.40;;
18425;SDS011;9340;48.756;9.226;2024-03-08T00:11:24;23.57;;;20.93;;
18425;SDS011;9340;48.756;9.226;2024-03-08T00:13:51;24.97;;;21.80;;
18425;SDS011;9340;48.756;9.226;2024-03-08T00:16:18;26.60;;;22.77;;
18425;SDS011;9340;48.756;9.226;2024-03-08T00:18:45;24.23;;;20.70;;
18425;SDS011;9340;48.756;9.226;2024-03-08T00:21:13;23.70;;;20.70;;
18425;SDS011;9340;48.756;9.226;2024-03-08T00:23:40;25.07;;;20.20;;
18425;SDS011;9340;48.756;9.226;2024-03-08T00:26:08;23.73;;;20.47;;
18425;SDS011;9340;48.756;9.226;2024-03-08T00:28:35;25.53;;;21.37;;
18425;SDS011;9340;48.756;9.226;2024-03-08T00:31:02;26.07;;;21.10;;
18425;SDS011;9340;48.756;9.226;2024-03-08T00:33:29;22.73;;;20.17;;
18425;SDS011;9340;48.756;9.226;2024-03-08T00:35:55;25.07;;;21.53;;
18425;SDS011;9340;48.756;9.226;2024-03-08T00:38:22;28.03;;;22.17;;
18425;SDS011;9340;48.756;9.226;2024-03-08T00:40:49;26.37;;;21.57;;
18425;SDS011;9340;48.756;9.226;2024-03-08T00:43:17;24.73;;;20.33;;
18425;SDS011;9340;48.756;9.226;2024-03-08T00:45:44;25.13;;;22.20;;
18425;SDS011;9340;48.756;9.226;2024-03-08T00:48:11;28.23;;;22.80;;
18425;SDS011;9340;48.756;9.226;2024-03-08T00:50:39;23.83;;;20.00;;
18425;SDS011;9340;48.756;9.226;2024-03-08T00:53:06;24.00;;;20.07;;
18425;SDS011;9340;48.756;9.226;2024-03-08T00:55:32;26.57;;;21.47;;
18425;SDS011;9340;48.756;9.226;2024-03-08T00:57:59;26.50;;;21.10;;
18425;SDS011;9340;48.756;9.226;2024-03-08T01:00:28;25.20;;;22.27;;
18425;SDS011;9340;48.756;9.226;2024-03-08T01:02:54;27.53;;;21.63;;
18425;SDS011;9340;48.756;9.226;2024-03-08T01:05:21;32.50;;;23.97;;
18425;SDS011;9340;48.756;9.226;2024-03-08T01:07:49;26.83;;;23.10;;
18425;SDS011;9340;48.756;9.226;2024-03-08T01:10:16;23.80;;;20.07;;
18425;SDS011;9340;48.756;9.226;2024-03-08T01:12:43;24.57;;;21.53;;
18425;SDS011;9340;48.756;9.226;2024-03-08T01:15:10;25.13;;;20.67;;
18425;SDS011;9340;48.756;9.226;2024-03-08T01:17:38;27.83;;;22.10;;
18425;SDS011;9340;48.756;9.226;2024-03-08T01:20:07;25.60;;;20.83;;
18425;SDS011;9340;48.756;9.226;2024-03-08T01:22:36;24.50;;;20.13;;
18425;SDS011;9340;48.756;9.226;2024-03-08T01:25:02;26.70;;;22.07;;
18425;SDS011;9340;48.756;9.226;2024-03-08T01:27:30;24.23;;;20.97;;
18425;SDS011;9340;48.756;9.226;2024-03-08T01:29:57;28.00;;;21.73;;
18425;SDS011;9340;48.756;9.226;2024-03-08T01:32:24;25.93;;;21.47;;
18425;SDS011;9340;48.756;9.226;2024-03-08T01:34:52;24.50;;;21.83;;
18425;SDS011;9340;48.756;9.226;2024-03-08T01:37:19;23.00;;;20.13;;
18425;SDS011;9340;48.756;9.226;2024-03-08T01:39:45;24.83;;;20.63;;
18425;SDS011;9340;48.756;9.226;2024-03-08T01:42:12;27.63;;;21.43;;
18425;SDS011;9340;48.756;9.226;2024-03-08T01:44:42;24.37;;;20.80;;
18425;SDS011;9340;48.756;9.226;2024-03-08T01:47:09;30.90;;;23.70;;
18425;SDS011;9340;48.756;9.226;2024-03-08T01:49:37;26.90;;;20.57;;
18425;SDS011;9340;48.756;9.226;2024-03-08T01:52:05;30.53;;;21.57;;
18425;SDS011;9340;48.756;9.226;2024-03-08T01:54:32;27.57;;;20.93;;
18425;SDS011;9340;48.756;9.226;2024-03-08T01:56:59;25.63;;;21.40;;
18425;SDS011;9340;48.756;9.226;2024-03-08T01:59:26;26.83;;;21.73;;
18425;SDS011;9340;48.756;9.226;2024-03-08T02:01:53;25.60;;;20.33;;
18425;SDS011;9340;48.756;9.226;2024-03-08T02:04:21;27.07;;;21.53;;
18425;SDS011;9340;48.756;9.226;2024-03-08T02:06:49;27.33;;;22.57;;
18425;SDS011;9340;48.756;9.226;2024-03-08T02:09:18;26.03;;;22.07;;
18425;SDS011;9340;48.756;9.226;2024-03-08T02:11:45;26.83;;;21.60;;
18425;SDS011;9340;48.756;9.226;2024-03-08T02:14:12;25.23;;;21.10;;
18425;SDS011;9340;48.756;9.226;2024-03-08T02:16:39;26.50;;;20.47;;
18425;SDS011;9340;48.756;9.226;2024-03-08T02:19:06;24.33;;;20.87;;
18425;SDS011;9340;48.756;9.226;2024-03-08T02:21:36;27.53;;;20.67;;
18425;SDS011;9340;48.756;9.226;2024-03-08T02:24:03;27.03;;;21.67;;
18425;SDS011;9340;48.756;9.226;2024-03-08T02:26:30;25.43;;;21.00;;
18425;SDS011;9340;48.756;9.226;2024-03-08T02:28:57;25.57;;;21.67;;
18425;SDS011;9340;48.756;9.226;2024-03-08T02:31:24;22.63;;;19.70;;
18425;SDS011;9340;48.756;9.226;2024-03-08T02:33:50;23.93;;;20.13;;
18425;SDS011;9340;48.756;9.226;2024-03-08T02:36:17;22.60;;;19.60;;
18425;SDS011;9340;48.756;9.226;2024-03-08T02:38:45;24.30;;;19.57;;
18425;SDS011;9340;48.756;9.226;2024-03-08T02:41:11;31.30;;;23.33;;
18425;SDS011;9340;48.756;9.226;2024-03-08T02:43:38;24.93;;;20.00;;
18425;SDS011;9340;48.756;9.226;2024-03-08T02:46:05;29.37;;;22.57;;
18425;SDS011;9340;48.756;9.226;2024-03-08T02:48:31;25.70;;;21.47;;
18425;SDS011;9340;48.756;9.226;2024-03-08T02:50:58;24.90;;;20.30;;
18425;SDS011;9340;48.756;9.226;2024-03-08T02:53:27;25.67;;;21.00;;
18425;SDS011;9340;48.756;9.226;2024-03-08T02:55:55;24.30;;;19.83;;
18425;SDS011;9340;48.756;9.226;2024-03-08T02:58:21;24.63;;;21.30;;
18425;SDS011;9340;48.756;9.226;2024-03-08T03:00:48;23.60;;;20.03;;
18425;SDS011;9340;48.756;9.226;2024-03-08T03:03:15;22.27;;;18.30;;
18425;SDS011;9340;48.756;9.226;2024-03-08T03:05:41;27.80;;;20.97;;
18425;SDS011;9340;48.756;9.226;2024-03-08T03:08:08;29.77;;;23.13;;
18425;SDS011;9340;48.756;9.226;2024-03-08T03:10:36;25.70;;;20.00;;
18425;SDS011;9340;48.756;9.226;2024-03-08T03:13:05;30.73;;;22.70;;
18425;SDS011;9340;48.756;9.226;2024-03-08T03:15:31;31.20;;;23.60;;
18425;SDS011;9340;48.756;9.226;2024-03-08T03:17:58;30.90;;;22.57;;
18425;SDS011;9340;48.756;9.226;2024-03-08T03:20:25;27.03;;;21.90;;
18425;SDS011;9340;48.756;9.226;2024-03-08T03:22:57;27.37;;;21.47;;
18425;SDS011;9340;48.756;9.226;2024-03-08T03:25:26;28.10;;;22.10;;
18425;SDS011;9340;48.756;9.226;2024-03-08T03:27:58;28.90;;;21.37;;
18425;SDS011;9340;48.756;9.226;2024-03-08T03:30:26;25.60;;;22.27;;
18425;SDS011;9340;48.756;9.226;2024-03-08T03:32:58;28.03;;;22.10;;
18425;SDS011;9340;48.756;9.226;2024-03-08T03:35:25;29.77;;;21.80;;
18425;SDS011;9340;48.756;9.226;2024-03-08T03:37:52;25.03;;;20.70;;
18425;SDS011;9340;48.756;9.226;2024-03-08T03:40:27;28.17;;;23.10;;
18425;SDS011;9340;48.756;9.226;2024-03-08T03:42:54;23.90;;;20.73;;
18425;SDS011;9340;48.756;9.226;2024-03-08T03:45:21;25.87;;;22.40;;
18425;SDS011;9340;48.756;9.226;2024-03-08T03:47:49;27.90;;;23.37;;
18425;SDS011;9340;48.756;9.226;2024-03-08T03:50:16;25.53;;;21.23;;
18425;SDS011;9340;48.756;9.226;2024-03-08T03:52:44;28.90;;;23.53;;
18425;SDS011;9340;48.756;9.226;2024-03-08T03:55:11;24.40;;;21.63;;
18425;SDS011;9340;48.756;9.226;2024-03-08T03:57:38;27.03;;;22.83;;
18425;SDS011;9340;48.756;9.226;2024-03-08T04:00:05;24.73;;;21.60;;
18425;SDS011;9340;48.756;9.226;2024-03-08T04:02:35;27.03;;;20.80;;
18425;SDS011;9340;48.756;9.226;2024-03-08T04:05:03;26.73;;;22.10;;
18425;SDS011;9340;48.756;9.226;2024-03-08T04:07:31;26.83;;;21.60;;
18425;SDS011;9340;48.756;9.226;2024-03-08T04:09:57;24.73;;;21.33;;
18425;SDS011;9340;48.756;9.226;2024-03-08T04:12:24;27.30;;;22.20;;
18425;SDS011;9340;48.756;9.226;2024-03-08T04:14:51;29.87;;;22.27;;
18425;SDS011;9340;48.756;9.226;2024-03-08T04:17:18;24.23;;;20.73;;
18425;SDS011;9340;48.756;9.226;2024-03-08T04:19:45;28.57;;;21.73;;
18425;SDS011;9340;48.756;9.226;2024-03-08T04:22:14;26.70;;;22.13;;
18425;SDS011;9340;48.756;9.226;2024-03-08T04:24:42;23.67;;;20.80;;
18425;SDS011;9340;48.756;9.226;2024-03-08T04:27:09;25.27;;;20.10;;
18425;SDS011;9340;48.756;9.226;2024-03-08T04:29:36;25.60;;;20.47;;
18425;SDS011;9340;48.756;9.226;2024-03-08T04:32:03;25.23;;;20.80;;
18425;SDS011;9340;48.756;9.226;2024-03-08T04:34:31;27.50;;;22.23;;
18425;SDS011;9340;48.756;9.226;2024-03-08T04:36:58;24.27;;;20.40;;
18425;SDS011;9340;48.756;9.226;2024-03-08T04:39:27;25.57;;;20.73;;
18425;SDS011;9340;48.756;9.226;2024-03-08T04:41:54;26.43;;;21.50;;
18425;SDS011;9340;48.756;9.226;2024-03-08T04:44:21;23.53;;;20.37;;
18425;SDS011;9340;48.756;9.226;2024-03-08T04:46:49;29.70;;;23.90;;
18425;SDS011;9340;48.756;9.226;2024-03-08T04:49:16;22.53;;;19.70;;
18425;SDS011;9340;48.756;9.226;2024-03-08T04:51:43;29.00;;;23.00;;
18425;SDS011;9340;48.756;9.226;2024-03-08T04:54:11;33.70;;;26.53;;
18425;SDS011;9340;48.756;9.226;2024-03-08T04:56:39;25.90;;;20.93;;
18425;SDS011;9340;48.756;9.226;2024-03-08T04:59:06;23.33;;;20.27;;
18425;SDS011;9340;48.756;9.226;2024-03-08T05:01:33;27.17;;;21.83;;
18425;SDS011;9340;48.756;9.226;2024-03-08T05:04:01;26.27;;;21.10;;
18425;SDS011;9340;48.756;9.226;2024-03-08T05:06:28;28.03;;;21.03;;
18425;SDS011;9340;48.756;9.226;2024-03-08T05:08:55;23.83;;;20.30;;
18425;SDS011;9340;48.756;9.226;2024-03-08T05:11:22;28.20;;;21.93;;
18425;SDS011;9340;48.756;9.226;2024-03-08T05:13:50;24.00;;;20.13;;
18425;SDS011;9340;48.756;9.226;2024-03-08T05:16:16;26.20;;;21.50;;
18425;SDS011;9340;48.756;9.226;2024-03-08T05:18:43;25.73;;;20.93;;
18425;SDS011;9340;48.756;9.226;2024-03-08T05:21:11;30.20;;;21.50;;
18425;SDS011;9340;48.756;9.226;2024-03-08T05:23:39;24.73;;;19.70;;
18425;SDS011;9340;48.756;9.226;2024-03-08T05:26:05;27.43;;;20.53;;
18425;SDS011;9340;48.756;9.226;2024-03-08T05:28:32;26.63;;;21.10;;
18425;SDS011;9340;48.756;9.226;2024-03-08T05:31:00;27.23;;;21.17;;
18425;SDS011;9340;48.756;9.226;2024-03-08T05:33:27;26.87;;;21.27;;
18425;SDS011;9340;48.756;9.226;2024-03-08T05:35:53;27.97;;;22.23;;
18425;SDS011;9340;48.756;9.226;2024-03-08T05:38:20;26.97;;;21.47;;
18425;SDS011;9340;48.756;9.226;2024-03-08T05:40:47;33.37;;;26.57;;
18425;SDS011;9340;48.756;9.226;2024-03-08T05:43:14;32.23;;;25.47;;
18425;SDS011;9340;48.756;9.226;2024-03-08T05:45:42;31.37;;;24.57;;
18425;SDS011;9340;48.756;9.226;2024-03-08T05:48:10;27.67;;;23.73;;
18425;SDS011;9340;48.756;9.226;2024-03-08T05:50:37;32.37;;;25.80;;
18425;SDS011;9340;48.756;9.226;2024-03-08T05:53:04;33.67;;;25.37;;
18425;SDS011;9340;48.756;9.226;2024-03-08T05:55:31;26.20;;;23.17;;
18425;SDS011;9340;48.756;9.226;2024-03-08T05:58:00;29.87;;;24.63;;
18425;SDS011;9340;48.756;9.226;2024-03-08T06:00:27;30.97;;;25.20;;
18425;SDS011;9340;48.756;9.226;2024-03-08T06:02:53;31.23;;;25.57;;
18425;SDS011;9340;48.756;9.226;2024-03-08T06:05:22;25.77;;;22.07;;
18425;SDS011;9340;48.756;9.226;2024-03-08T06:07:49;29.40;;;24.10;;
18425;SDS011;9340;48.756;9.226;2024-03-08T06:10:18;31.50;;;25.23;;
18425;SDS011;9340;48.756;9.226;2024-03-08T06:12:45;26.60;;;21.90;;
18425;SDS011;9340;48.756;9.226;2024-03-08T06:15:12;28.57;;;22.97;;
18425;SDS011;9340;48.756;9.226;2024-03-08T06:17:40;27.07;;;22.10;;
18425;SDS011;9340;48.756;9.226;2024-03-08T06:20:07;26.53;;;22.10;;
18425;SDS011;9340;48.756;9.226;2024-03-08T06:22:39;29.73;;;23.97;;
18425;SDS011;9340;48.756;9.226;2024-03-08T06:25:06;29.23;;;24.47;;
18425;SDS011;9340;48.756;9.226;2024-03-08T06:27:33;29.77;;;23.50;;
18425;SDS011;9340;48.756;9.226;2024-03-08T06:30:00;29.23;;;23.70;;
18425;SDS011;9340;48.756;9.226;2024-03-08T06:32:29;28.53;;;24.77;;
18425;SDS011;9340;48.756;9.226;2024-03-08T06:35:00;28.53;;;23.97;;
18425;SDS011;9340;48.756;9.226;2024-03-08T06:37:27;32.13;;;25.93;;
18425;SDS011;9340;48.756;9.226;2024-03-08T06:39:55;26.53;;;22.87;;
18425;SDS011;9340;48.756;9.226;2024-03-08T06:42:22;28.33;;;22.03;;
18425;SDS011;9340;48.756;9.226;2024-03-08T06:44:48;32.50;;;25.07;;
18425;SDS011;9340;48.756;9.226;2024-03-08T06:47:15;28.40;;;23.50;;
18425;SDS011;9340;48.756;9.226;2024-03-08T06:49:42;28.43;;;24.07;;
18425;SDS011;9340;48.756;9.226;2024-03-08T06:52:09;29.77;;;23.30;;
18425;SDS011;9340;48.756;9.226;2024-03-08T06:54:36;27.37;;;23.13;;
18425;SDS011;9340;48.756;9.226;2024-03-08T06:57:04;25.47;;;21.93;;
18425;SDS011;9340;48.756;9.226;2024-03-08T06:59:31;29.20;;;22.77;;
18425;SDS011;9340;48.756;9.226;2024-03-08T07:01:57;34.20;;;26.90;;
18425;SDS011;9340;48.756;9.226;2024-03-08T07:04:25;31.40;;;26.27;;
18425;SDS011;9340;48.756;9.226;2024-03-08T07:06:54;28.90;;;23.80;;
18425;SDS011;9340;48.756;9.226;2024-03-08T07:09:22;25.13;;;22.53;;
18425;SDS011;9340;48.756;9.226;2024-03-08T07:11:49;26.80;;;23.10;;
18425;SDS011;9340;48.756;9.226;2024-03-08T07:14:20;29.50;;;24.73;;
18425;SDS011;9340;48.756;9.226;2024-03-08T07:16:47;24.73;;;21.70;;
18425;SDS011;9340;48.756;9.226;2024-03-08T07:19:14;28.07;;;23.67;;
18425;SDS011;9340;48.756;9.226;2024-03-08T07:21:41;28.30;;;23.87;;
18425;SDS011;9340;48.756;9.226;2024-03-08T07:24:09;28.03;;;22.97;;
18425;SDS011;9340;48.756;9.226;2024-03-08T07:26:49;25.50;;;22.80;;
18425;SDS011;9340;48.756;9.226;2024-03-08T07:29:17;24.63;;;22.07;;
18425;SDS011;9340;48.756;9.226;2024-03-08T07:31:45;21.73;;;19.43;;
18425;SDS011;9340;48.756;9.226;2024-03-08T07:34:20;24.20;;;20.17;;
18425;SDS011;9340;48.756;9.226;2024-03-08T07:36:47;22.63;;;20.23;;
18425;SDS011;9340;48.756;9.226;2024-03-08T07:39:15;22.77;;;20.27;;
18425;SDS011;9340;48.756;9.226;2024-03-08T07:41:42;28.03;;;21.17;;
18425;SDS011;9340;48.756;9.226;2024-03-08T07:44:09;22.13;;;19.80;;
18425;SDS011;9340;48.756;9.226;2024-03-08T07:46:36;23.00;;;20.43;;
18425;SDS011;9340;48.756;9.226;2024-03-08T07:49:04;24.13;;;20.13;;
18425;SDS011;9340;48.756;9.226;2024-03-08T07:51:32;21.23;;;19.10;;
18425;SDS011;9340;48.756;9.226;2024-03-08T07:53:59;22.53;;;20.00;;
18425;SDS011;9340;48.756;9.226;2024-03-08T07:56:26;21.03;;;18.50;;
18425;SDS011;9340;48.756;9.226;2024-03-08T07:58:53;20.97;;;18.17;;
18425;SDS011;9340;48.756;9.226;2024-03-08T08:01:19;21.27;;;18.83;;
18425;SDS011;9340;48.756;9.226;2024-03-08T08:03:45;20.77;;;18.63;;
18425;SDS011;9340;48.756;9.226;2024-03-08T08:06:15;21.83;;;19.53;;
18425;SDS011;9340;48.756;9.226;2024-03-08T08:08:42;21.73;;;19.43;;
18425;SDS011;9340;48.756;9.226;2024-03-08T08:11:09;21.23;;;19.03;;
18425;SDS011;9340;48.756;9.226;2024-03-08T08:13:36;21.03;;;18.77;;
18425;SDS011;9340;48.756;9.226;2024-03-08T08:16:04;20.43;;;18.33;;
18425;SDS011;9340;48.756;9.226;2024-03-08T08:18:31;22.20;;;19.87;;
18425;SDS011;9340;48.756;9.226;2024-03-08T08:21:00;21.10;;;18.77;;
18425;SDS011;9340;48.756;9.226;2024-03-08T08:23:28;20.77;;;18.40;;
18425;SDS011;9340;48.756;9.226;2024-03-08T08:25:55;22.57;;;20.27;;
18425;SDS011;9340;48.756;9.226;2024-03-08T08:28:22;22.30;;;19.37;;
18425;SDS011;9340;48.756;9.226;2024-03-08T08:30:49;22.23;;;19.93;;
18425;SDS011;9340;48.756;9.226;2024-03-08T08:33:17;21.73;;;19.43;;
18425;SDS011;9340;48.756;9.226;2024-03-08T08:35:44;23.03;;;20.13;;
18425;SDS011;9340;48.756;9.226;2024-03-08T08:38:13;22.57;;;19.67;;
18425;SDS011;9340;48.756;9.226;2024-03-08T08:40:41;24.40;;;20.07;;
18425;SDS011;9340;48.756;9.226;2024-03-08T08:43:08;20.47;;;18.27;;
18425;SDS011;9340;48.756;9.226;2024-03-08T08:45:35;21.37;;;19.07;;
18425;SDS011;9340;48.756;9.226;2024-03-08T08:48:04;22.80;;;20.23;;
18425;SDS011;9340;48.756;9.226;2024-03-08T08:50:31;23.67;;;19.67;;
18425;SDS011;9340;48.756;9.226;2024-03-08T08:52:58;20.30;;;17.80;;
18425;SDS011;9340;48.756;9.226;2024-03-08T08:55:25;22.03;;;18.67;;
18425;SDS011;9340;48.756;9.226;2024-03-08T08:57:53;20.70;;;18.60;;
18425;SDS011;9340;48.756;9.226;2024-03-08T09:00:21;20.67;;;18.47;;
18425;SDS011;9340;48.756;9.226;2024-03-08T09:02:52;21.83;;;19.63;;
18425;SDS011;9340;48.756;9.226;2024-03-08T09:05:20;20.23;;;18.20;;
18425;SDS011;9340;48.756;9.226;2024-03-08T09:07:49;22.13;;;19.43;;
18425;SDS011;9340;48.756;9.226;2024-03-08T09:10:16;22.37;;;19.87;;
18425;SDS011;9340;48.756;9.226;2024-03-08T09:12:43;23.53;;;19.60;;
18425;SDS011;9340;48.756;9.226;2024-03-08T09:15:12;21.30;;;18.33;;
18425;SDS011;9340;48.756;9.226;2024-03-08T09:17:39;21.40;;;18.90;;
18425;SDS011;9340;48.756;9.226;2024-03-08T09:20:06;20.47;;;18.27;;
18425;SDS011;9340;48.756;9.226;2024-03-08T09:22:35;20.83;;;17.93;;
18425;SDS011;9340;48.756;9.226;2024-03-08T09:25:02;21.17;;;18.27;;
18425;SDS011;9340;48.756;9.226;2024-03-08T09:27:30;20.87;;;18.60;;
18425;SDS011;9340;48.756;9.226;2024-03-08T09:29:56;20.23;;;18.17;;
18425;SDS011;9340;48.756;9.226;2024-03-08T09:32:24;21.87;;;19.50;;
18425;SDS011;9340;48.756;9.226;2024-03-08T09:34:51;20.67;;;18.47;;
18425;SDS011;9340;48.756;9.226;2024-03-08T09:37:18;21.17;;;18.87;;
18425;SDS011;9340;48.756;9.226;2024-03-08T09:39:45;20.23;;;18.13;;
18425;SDS011;9340;48.756;9.226;2024-03-08T09:42:11;21.77;;;19.57;;
18425;SDS011;9340;48.756;9.226;2024-03-08T09:44:39;21.20;;;18.63;;
18425;SDS011;9340;48.756;9.226;2024-03-08T09:47:09;20.73;;;18.63;;
18425;SDS011;9340;48.756;9.226;2024-03-08T09:49:43;20.00;;;17.20;;
18425;SDS011;9340;48.756;9.226;2024-03-08T09:52:11;19.93;;;17.23;;
18425;SDS011;9340;48.756;9.226;2024-03-08T09:54:38;19.43;;;17.50;;
18425;SDS011;9340;48.756;9.226;2024-03-08T09:57:05;19.33;;;17.30;;
18425;SDS011;9340;48.756;9.226;2024-03-08T09:59:34;19.17;;;17.20;;
18425;SDS011;9340;48.756;9.226;2024-03-08T10:02:13;19.60;;;17.60;;
18425;SDS011;9340;48.756;9.226;2024-03-08T10:04:43;19.23;;;17.23;;
18425;SDS011;9340;48.756;9.226;2024-03-08T10:07:12;18.50;;;16.07;;
18425;SDS011;9340;48.756;9.226;2024-03-08T10:09:39;17.57;;;15.67;;
18425;SDS011;9340;48.756;9.226;2024-03-08T10:12:07;18.00;;;16.13;;
18425;SDS011;9340;48.756;9.226;2024-03-08T10:14:37;19.50;;;17.43;;
18425;SDS011;9340;48.756;9.226;2024-03-08T10:17:05;17.57;;;15.80;;
18425;SDS011;9340;48.756;9.226;2024-03-08T10:19:32;19.17;;;17.10;;
18425;SDS011;9340;48.756;9.226;2024-03-08T10:22:00;19.10;;;17.13;;
18425;SDS011;9340;48.756;9.226;2024-03-08T10:24:29;18.07;;;16.17;;
18425;SDS011;9340;48.756;9.226;2024-03-08T10:26:58;17.23;;;15.43;;
18425;SDS011;9340;48.756;9.226;2024-03-08T10:29:26;17.83;;;15.87;;
18425;SDS011;9340;48.756;9.226;2024-03-08T10:31:53;17.93;;;16.13;;
18425;SDS011;9340;48.756;9.226;2024-03-08T10:34:21;18.13;;;16.23;;
18425;SDS011;9340;48.756;9.226;2024-03-08T10:36:48;17.57;;;15.77;;
18425;SDS011;9340;48.756;9.226;2024-03-08T10:39:20;17.33;;;15.47;;
18425;SDS011;9340;48.756;9.226;2024-03-08T10:41:49;17.37;;;15.73;;
18425;SDS011;9340;48.756;9.226;2024-03-08T10:44:23;17.20;;;15.50;;
18425;SDS011;9340;48.756;9.226;2024-03-08T10:47:04;17.20;;;15.50;;
18425;SDS011;9340;48.756;9.226;2024-03-08T10:49:37;17.57;;;15.77;;
18425;SDS011;9340;48.756;9.226;2024-03-08T10:52:05;17.97;;;16.17;;
18425;SDS011;9340;48.756;9.226;2024-03-08T10:54:34;19.00;;;17.00;;
18425;SDS011;9340;48.756;9.226;2024-03-08T10:57:05;19.40;;;17.50;;
18425;SDS011;9340;48.756;9.226;2024-03-08T10:59:33;18.80;;;16.90;;
18425;SDS011;9340;48.756;9.226;2024-03-08T11:02:00;20.17;;;18.17;;
18425;SDS011;9340;48.756;9.226;2024-03-08T11:04:30;18.70;;;16.80;;
18425;SDS011;9340;48.756;9.226;2024-03-08T11:07:00;19.37;;;17.47;;
18425;SDS011;9340;48.756;9.226;2024-03-08T11:09:31;18.40;;;16.50;;
18425;SDS011;9340;48.756;9.226;2024-03-08T11:14:47;19.50;;;17.60;;
18425;SDS011;9340;48.756;9.226;2024-03-08T11:17:15;19.33;;;16.77;;
18425;SDS011;9340;48.756;9.226;2024-03-08T11:19:47;18.93;;;16.93;;
18425;SDS011;9340;48.756;9.226;2024-03-08T11:22:20;20.17;;;18.17;;
18425;SDS011;9340;48.756;9.226;2024-03-08T11:24:49;18.17;;;16.27;;
18425;SDS011;9340;48.756;9.226;2024-03-08T11:27:16;18.03;;;16.20;;
18425;SDS011;9340;48.756;9.226;2024-03-08T11:29:44;19.90;;;17.80;;
18425;SDS011;9340;48.756;9.226;2024-03-08T11:32:26;18.33;;;16.37;;
18425;SDS011;9340;48.756;9.226;2024-03-08T11:34:55;21.37;;;18.10;;
18425;SDS011;9340;48.756;9.226;2024-03-08T11:37:22;19.37;;;17.37;;
18425;SDS011;9340;48.756;9.226;2024-03-08T11:39:49;30.07;;;26.90;;
18425;SDS011;9340;48.756;9.226;2024-03-08T11:42:17;22.60;;;20.17;;
18425;SDS011;9340;48.756;9.226;2024-03-08T11:44:46;17.10;;;15.33;;
18425;SDS011;9340;48.756;9.226;2024-03-08T11:47:13;19.40;;;17.40;;
18425;SDS011;9340;48.756;9.226;2024-03-08T11:49:41;17.67;;;15.90;;
18425;SDS011;9340;48.756;9.226;2024-03-08T11:52:10;18.17;;;16.33;;
18425;SDS011;9340;48.756;9.226;2024-03-08T11:54:38;19.00;;;17.10;;
18425;SDS011;9340;48.756;9.226;2024-03-08T11:57:05;19.80;;;17.70;;
18425;SDS011;9340;48.756;9.226;2024-03-08T11:59:34;19.20;;;17.20;;
18425;SDS011;9340;48.756;9.226;2024-03-08T12:02:03;20.97;;;18.77;;
18425;SDS011;9340;48.756;9.226;2024-03-08T12:04:31;21.53;;;19.23;;
18425;SDS011;9340;48.756;9.226;2024-03-08T12:07:01;21.17;;;19.03;;
18425;SDS011;9340;48.756;9.226;2024-03-08T12:09:33;21.10;;;18.90;;
18425;SDS011;9340;48.756;9.226;2024-03-08T12:12:01;20.47;;;17.40;;
18425;SDS011;9340;48.756;9.226;2024-03-08T12:14:29;20.27;;;17.80;;
18425;SDS011;9340;48.756;9.226;2024-03-08T12:16:57;21.60;;;18.67;;
18425;SDS011;9340;48.756;9.226;2024-03-08T12:19:27;19.77;;;17.73;;
18425;SDS011;9340;48.756;9.226;2024-03-08T12:21:54;20.30;;;17.83;;
18425;SDS011;9340;48.756;9.226;2024-03-08T12:24:21;20.23;;;17.30;;
18425;SDS011;9340;48.756;9.226;2024-03-08T12:26:48;22.50;;;19.90;;
18425;SDS011;9340;48.756;9.226;2024-03-08T12:29:18;21.63;;;19.20;;
18425;SDS011;9340;48.756;9.226;2024-03-08T12:31:47;21.87;;;19.60;;
18425;SDS011;9340;48.756;9.226;2024-03-08T12:34:16;21.77;;;19.43;;
18425;SDS011;9340;48.756;9.226;2024-03-08T12:36:45;22.03;;;19.60;;
18425;SDS011;9340;48.756;9.226;2024-03-08T12:39:15;22.67;;;19.07;;
18425;SDS011;9340;48.756;9.226;2024-03-08T12:41:42;21.67;;;18.47;;
18425;SDS011;9340;48.756;9.226;2024-03-08T12:44:09;19.97;;;17.77;;
18425;SDS011;9340;48.756;9.226;2024-03-08T12:46:37;19.97;;;17.87;;
18425;SDS011;9340;48.756;9.226;2024-03-08T12:49:05;21.50;;;18.93;;
18425;SDS011;9340;48.756;9.226;2024-03-08T12:51:34;21.07;;;18.87;;
18425;SDS011;9340;48.756;9.226;2024-03-08T12:54:03;22.23;;;19.90;;
18425;SDS011;9340;48.756;9.226;2024-03-08T12:56:32;23.63;;;19.43;;
18425;SDS011;9340;48.756;9.226;2024-03-08T12:59:00;22.47;;;20.07;;
18425;SDS011;9340;48.756;9.226;2024-03-08T13:01:27;22.23;;;19.83;;
18425;SDS011;9340;48.756;9.226;2024-03-08T13:03:55;20.13;;;18.13;;
18425;SDS011;9340;48.756;9.226;2024-03-08T13:06:23;22.43;;;19.57;;
18425;SDS011;9340;48.756;9.226;2024-03-08T13:08:50;21.50;;;19.20;;
18425;SDS011;9340;48.756;9.226;2024-03-08T13:11:19;22.63;;;19.97;;
18425;SDS011;9340;48.756;9.226;2024-03-08T13:13:48;20.33;;;18.13;;
18425;SDS011;9340;48.756;9.226;2024-03-08T13:16:15;21.50;;;19.17;;
18425;SDS011;9340;48.756;9.226;2024-03-08T13:18:44;23.80;;;19.17;;
18425;SDS011;9340;48.756;9.226;2024-03-08T13:21:13;23.07;;;19.77;;
18425;SDS011;9340;48.756;9.226;2024-03-08T13:23:45;21.50;;;18.97;;
18425;SDS011;9340;48.756;9.226;2024-03-08T13:26:14;22.23;;;19.93;;
18425;SDS011;9340;48.756;9.226;2024-03-08T13:28:44;22.07;;;19.73;;
18425;SDS011;9340;48.756;9.226;2024-03-08T13:31:13;24.13;;;20.83;;
18425;SDS011;9340;48.756;9.226;2024-03-08T13:33:41;23.07;;;19.57;;
18425;SDS011;9340;48.756;9.226;2024-03-08T13:36:10;22.33;;;19.93;;
18425;SDS011;9340;48.756;9.226;2024-03-08T13:38:40;22.67;;;19.57;;
18425;SDS011;9340;48.756;9.226;2024-03-08T13:41:09;23.07;;;20.33;;
18425;SDS011;9340;48.756;9.226;2024-03-08T13:43:36;21.33;;;19.00;;
18425;SDS011;9340;48.756;9.226;2024-03-08T13:46:06;22.07;;;19.67;;
18425;SDS011;9340;48.756;9.226;2024-03-08T13:48:33;22.53;;;20.13;;
18425;SDS011;9340;48.756;9.226;2024-03-08T13:51:00;23.33;;;19.33;;
18425;SDS011;9340;48.756;9.226;2024-03-08T13:53:27;23.47;;;19.00;;
18425;SDS011;9340;48.756;9.226;2024-03-08T13:55:53;21.00;;;18.70;;
18425;SDS011;9340;48.756;9.226;2024-03-08T13:58:21;21.27;;;18.43;;
18425;SDS011;9340;48.756;9.226;2024-03-08T14:00:48;20.07;;;17.97;;
18425;SDS011;9340;48.756;9.226;2024-03-08T14:03:17;21.83;;;19.57;;
18425;SDS011;9340;48.756;9.226;2024-03-08T14:05:46;20.60;;;18.47;;
18425;SDS011;9340;48.756;9.226;2024-03-08T14:08:13;20.23;;;18.03;;
18425;SDS011;9340;48.756;9.226;2024-03-08T14:10:41;21.33;;;18.70;;
18425;SDS011;9340;48.756;9.226;2024-03-08T14:13:07;21.77;;;19.33;;
18425;SDS011;9340;48.756;9.226;2024-03-08T14:15:36;21.73;;;19.43;;
18425;SDS011;9340;48.756;9.226;2024-03-08T14:18:07;20.60;;;18.10;;
18425;SDS011;9340;48.756;9.226;2024-03-08T14:20:35;21.60;;;19.27;;
18425;SDS011;9340;48.756;9.226;2024-03-08T14:23:01;21.33;;;19.13;;
18425;SDS011;9340;48.756;9.226;2024-03-08T14:25:31;21.60;;;18.83;;
18425;SDS011;9340;48.756;9.226;2024-03-08T14:27:58;25.33;;;19.83;;
18425;SDS011;9340;48.756;9.226;2024-03-08T14:30:31;26.20;;;18.90;;
18425;SDS011;9340;48.756;9.226;2024-03-08T14:33:02;20.83;;;18.63;;
18425;SDS011;9340;48.756;9.226;2024-03-08T14:35:32;20.47;;;18.30;;
18425;SDS011;9340;48.756;9.226;2024-03-08T14:38:00;21.23;;;18.97;;
18425;SDS011;9340;48.756;9.226;2024-03-08T14:40:27;21.90;;;19.70;;